sensor_id;sensor_type;location;lat;lon;timestamp;P1;durP1;ratioP1;P2;durP2;ratioP2
81137;SDS011;70623;50.886;3.892;2023-06-19T00:01:33;6.03;;;4.15;;
81137;SDS011;70623;50.886;3.892;2023-06-19T00:03:59;7.80;;;3.95;;
81137;SDS011;70623;50.886;3.892;2023-06-19T00:06:24;8.95;;;4.10;;
81137;SDS011;70623;50.886;3.892;2023-06-19T00:08:50;7.30;;;3.67;;
81137;SDS011;70623;50.886;3.892;2023-06-19T00:11:16;7.45;;;4.10;;
81137;SDS011;70623;50.886;3.892;2023-06-19T00:13:41;9.90;;;4.85;;
81137;SDS011;70623;50.886;3.892;2023-06-19T00:16:07;7.65;;;4.57;;
81137;SDS011;70623;50.886;3.892;2023-06-19T00:18:33;7.75;;;4.20;;
81137;SDS011;70623;50.886;3.892;2023-06-19T00:21:04;6.38;;;4.00;;
81137;SDS011;70623;50.886;3.892;2023-06-19T00:23:33;8.00;;;4.53;;
81137;SDS011;70623;50.886;3.892;2023-06-19T00:25:59;8.38;;;4.32;;
81137;SDS011;70623;50.886;3.892;2023-06-19T00:28:31;7.57;;;4.38;;
81137;SDS011;70623;50.886;3.892;2023-06-19T00:30:59;7.90;;;4.82;;
81137;SDS011;70623;50.886;3.892;2023-06-19T00:33:24;11.43;;;4.45;;
81137;SDS011;70623;50.886;3.892;2023-06-19T00:35:50;9.75;;;4.60;;
81137;SDS011;70623;50.886;3.892;2023-06-19T00:38:16;9.40;;;4.82;;
81137;SDS011;70623;50.886;3.892;2023-06-19T00:40:42;10.48;;;4.18;;
81137;SDS011;70623;50.886;3.892;2023-06-19T00:43:08;13.10;;;5.40;;
81137;SDS011;70623;50.886;3.892;2023-06-19T00:45:39;9.70;;;4.63;;
81137;SDS011;70623;50.886;3.892;2023-06-19T00:48:05;9.10;;;5.13;;
81137;SDS011;70623;50.886;3.892;2023-06-19T00:50:31;8.32;;;5.43;;
81137;SDS011;70623;50.886;3.892;2023-06-19T00:52:57;10.10;;;5.80;;
81137;SDS011;70623;50.886;3.892;2023-06-19T00:55:24;8.18;;;5.82;;
81137;SDS011;70623;50.886;3.892;2023-06-19T00:57:53;10.20;;;5.20;;
81137;SDS011;70623;50.886;3.892;2023-06-19T01:00:19;11.65;;;5.80;;
81137;SDS011;70623;50.886;3.892;2023-06-19T01:02:46;9.48;;;6.00;;
81137;SDS011;70623;50.886;3.892;2023-06-19T01:05:12;13.48;;;5.90;;
81137;SDS011;70623;50.886;3.892;2023-06-19T01:10:32;13.45;;;6.90;;
81137;SDS011;70623;50.886;3.892;2023-06-19T01:13:23;10.55;;;6.97;;
81137;SDS011;70623;50.886;3.892;2023-06-19T01:15:51;10.60;;;6.32;;
81137;SDS011;70623;50.886;3.892;2023-06-19T01:18:18;11.80;;;7.18;;
81137;SDS011;70623;50.886;3.892;2023-06-19T01:20:44;10.75;;;6.75;;
81137;SDS011;70623;50.886;3.892;2023-06-19T01:23:11;9.80;;;6.88;;
81137;SDS011;70623;50.886;3.892;2023-06-19T01:25:39;12.77;;;7.63;;
81137;SDS011;70623;50.886;3.892;2023-06-19T01:28:05;13.25;;;6.60;;
81137;SDS011;70623;50.886;3.892;2023-06-19T01:30:34;11.30;;;7.30;;
81137;SDS011;70623;50.886;3.892;2023-06-19T01:35:40;12.73;;;8.35;;
81137;SDS011;70623;50.886;3.892;2023-06-19T01:38:08;13.82;;;8.13;;
81137;SDS011;70623;50.886;3.892;2023-06-19T01:40:35;11.70;;;7.72;;
81137;SDS011;70623;50.886;3.892;2023-06-19T01:43:02;14.93;;;8.80;;
81137;SDS011;70623;50.886;3.892;2023-06-19T01:45:30;14.60;;;8.52;;
81137;SDS011;70623;50.886;3.892;2023-06-19T01:47:56;13.38;;;8.30;;
81137;SDS011;70623;50.886;3.892;2023-06-19T01:50:25;19.85;;;9.75;;
81137;SDS011;70623;50.886;3.892;2023-06-19T01:52:52;15.25;;;9.18;;
81137;SDS011;70623;50.886;3.892;2023-06-19T01:55:19;14.35;;;9.10;;
81137;SDS011;70623;50.886;3.892;2023-06-19T01:57:45;14.63;;;9.20;;
81137;SDS011;70623;50.886;3.892;2023-06-19T02:00:11;15.00;;;8.98;;
81137;SDS011;70623;50.886;3.892;2023-06-19T02:02:40;13.68;;;8.60;;
81137;SDS011;70623;50.886;3.892;2023-06-19T02:05:05;13.13;;;8.35;;
81137;SDS011;70623;50.886;3.892;2023-06-19T02:07:31;12.80;;;7.85;;
81137;SDS011;70623;50.886;3.892;2023-06-19T02:09:57;13.45;;;7.32;;
81137;SDS011;70623;50.886;3.892;2023-06-19T02:12:23;10.05;;;7.03;;
81137;SDS011;70623;50.886;3.892;2023-06-19T02:14:48;11.05;;;7.22;;
81137;SDS011;70623;50.886;3.892;2023-06-19T02:17:14;9.13;;;5.93;;
81137;SDS011;70623;50.886;3.892;2023-06-19T02:19:42;11.90;;;6.35;;
81137;SDS011;70623;50.886;3.892;2023-06-19T02:22:08;13.27;;;7.60;;
81137;SDS011;70623;50.886;3.892;2023-06-19T02:24:34;18.08;;;7.35;;
81137;SDS011;70623;50.886;3.892;2023-06-19T02:27:02;13.13;;;6.97;;
81137;SDS011;70623;50.886;3.892;2023-06-19T02:29:28;11.77;;;6.57;;
81137;SDS011;70623;50.886;3.892;2023-06-19T02:31:58;10.38;;;6.75;;
81137;SDS011;70623;50.886;3.892;2023-06-19T02:34:24;10.05;;;6.13;;
81137;SDS011;70623;50.886;3.892;2023-06-19T02:36:52;10.10;;;6.15;;
81137;SDS011;70623;50.886;3.892;2023-06-19T02:39:20;12.35;;;6.90;;
81137;SDS011;70623;50.886;3.892;2023-06-19T02:41:46;10.82;;;6.55;;
81137;SDS011;70623;50.886;3.892;2023-06-19T02:44:12;12.50;;;7.32;;
81137;SDS011;70623;50.886;3.892;2023-06-19T02:46:40;13.20;;;7.68;;
81137;SDS011;70623;50.886;3.892;2023-06-19T02:49:05;14.00;;;8.18;;
81137;SDS011;70623;50.886;3.892;2023-06-19T02:51:31;10.95;;;6.40;;
81137;SDS011;70623;50.886;3.892;2023-06-19T02:53:57;12.25;;;7.05;;
81137;SDS011;70623;50.886;3.892;2023-06-19T02:56:23;13.18;;;7.25;;
81137;SDS011;70623;50.886;3.892;2023-06-19T02:58:50;12.88;;;6.30;;
81137;SDS011;70623;50.886;3.892;2023-06-19T03:01:15;11.90;;;6.72;;
81137;SDS011;70623;50.886;3.892;2023-06-19T03:03:41;9.85;;;7.38;;
81137;SDS011;70623;50.886;3.892;2023-06-19T03:06:11;11.68;;;6.82;;
81137;SDS011;70623;50.886;3.892;2023-06-19T03:08:38;10.95;;;6.28;;
81137;SDS011;70623;50.886;3.892;2023-06-19T03:11:04;10.75;;;7.00;;
81137;SDS011;70623;50.886;3.892;2023-06-19T03:13:43;13.65;;;6.50;;
81137;SDS011;70623;50.886;3.892;2023-06-19T03:16:22;11.07;;;7.25;;
81137;SDS011;70623;50.886;3.892;2023-06-19T03:18:48;11.95;;;6.70;;
81137;SDS011;70623;50.886;3.892;2023-06-19T03:21:14;14.13;;;6.90;;
81137;SDS011;70623;50.886;3.892;2023-06-19T03:23:40;11.82;;;8.13;;
81137;SDS011;70623;50.886;3.892;2023-06-19T03:26:07;12.30;;;7.70;;
81137;SDS011;70623;50.886;3.892;2023-06-19T03:28:33;13.15;;;8.13;;
81137;SDS011;70623;50.886;3.892;2023-06-19T03:30:59;11.60;;;7.35;;
81137;SDS011;70623;50.886;3.892;2023-06-19T03:33:25;13.68;;;8.02;;
81137;SDS011;70623;50.886;3.892;2023-06-19T03:35:51;14.00;;;8.88;;
81137;SDS011;70623;50.886;3.892;2023-06-19T03:38:19;15.25;;;8.88;;
81137;SDS011;70623;50.886;3.892;2023-06-19T03:40:45;16.38;;;9.60;;
81137;SDS011;70623;50.886;3.892;2023-06-19T03:43:12;15.57;;;9.82;;
81137;SDS011;70623;50.886;3.892;2023-06-19T03:45:40;17.30;;;10.68;;
81137;SDS011;70623;50.886;3.892;2023-06-19T03:48:06;15.50;;;10.13;;
81137;SDS011;70623;50.886;3.892;2023-06-19T03:50:31;18.92;;;10.88;;
81137;SDS011;70623;50.886;3.892;2023-06-19T03:52:57;17.20;;;10.15;;
81137;SDS011;70623;50.886;3.892;2023-06-19T03:55:23;17.83;;;11.05;;
81137;SDS011;70623;50.886;3.892;2023-06-19T03:57:48;15.57;;;9.85;;
81137;SDS011;70623;50.886;3.892;2023-06-19T04:00:17;14.73;;;10.20;;
81137;SDS011;70623;50.886;3.892;2023-06-19T04:02:43;17.92;;;9.85;;
81137;SDS011;70623;50.886;3.892;2023-06-19T04:05:11;17.75;;;11.73;;
81137;SDS011;70623;50.886;3.892;2023-06-19T04:07:44;18.30;;;11.35;;
81137;SDS011;70623;50.886;3.892;2023-06-19T04:10:09;19.08;;;11.90;;
81137;SDS011;70623;50.886;3.892;2023-06-19T04:12:36;18.98;;;10.82;;
81137;SDS011;70623;50.886;3.892;2023-06-19T04:15:02;18.85;;;13.07;;
81137;SDS011;70623;50.886;3.892;2023-06-19T04:17:31;17.63;;;12.00;;
81137;SDS011;70623;50.886;3.892;2023-06-19T04:19:57;22.60;;;13.35;;
81137;SDS011;70623;50.886;3.892;2023-06-19T04:22:22;26.95;;;14.80;;
81137;SDS011;70623;50.886;3.892;2023-06-19T04:24:48;18.83;;;12.40;;
81137;SDS011;70623;50.886;3.892;2023-06-19T04:27:13;19.45;;;12.40;;
81137;SDS011;70623;50.886;3.892;2023-06-19T04:29:39;21.13;;;12.15;;
81137;SDS011;70623;50.886;3.892;2023-06-19T04:32:05;18.15;;;12.32;;
81137;SDS011;70623;50.886;3.892;2023-06-19T04:34:36;23.00;;;13.18;;
81137;SDS011;70623;50.886;3.892;2023-06-19T04:37:04;23.25;;;13.65;;
81137;SDS011;70623;50.886;3.892;2023-06-19T04:39:32;20.27;;;13.20;;
81137;SDS011;70623;50.886;3.892;2023-06-19T04:41:58;24.35;;;14.70;;
81137;SDS011;70623;50.886;3.892;2023-06-19T04:44:25;22.35;;;14.38;;
81137;SDS011;70623;50.886;3.892;2023-06-19T04:47:00;26.15;;;14.35;;
81137;SDS011;70623;50.886;3.892;2023-06-19T04:49:28;24.58;;;14.45;;
81137;SDS011;70623;50.886;3.892;2023-06-19T04:51:57;27.70;;;15.55;;
81137;SDS011;70623;50.886;3.892;2023-06-19T04:54:24;26.83;;;15.25;;
81137;SDS011;70623;50.886;3.892;2023-06-19T04:56:50;23.77;;;16.02;;
81137;SDS011;70623;50.886;3.892;2023-06-19T04:59:15;25.45;;;15.23;;
81137;SDS011;70623;50.886;3.892;2023-06-19T05:01:44;24.85;;;15.52;;
81137;SDS011;70623;50.886;3.892;2023-06-19T05:04:09;25.52;;;15.85;;
81137;SDS011;70623;50.886;3.892;2023-06-19T05:06:38;24.80;;;15.38;;
81137;SDS011;70623;50.886;3.892;2023-06-19T05:09:03;26.85;;;15.63;;
81137;SDS011;70623;50.886;3.892;2023-06-19T05:11:30;25.70;;;16.42;;
81137;SDS011;70623;50.886;3.892;2023-06-19T05:13:55;29.02;;;17.33;;
81137;SDS011;70623;50.886;3.892;2023-06-19T05:16:25;23.92;;;15.98;;
81137;SDS011;70623;50.886;3.892;2023-06-19T05:18:51;25.58;;;15.25;;
81137;SDS011;70623;50.886;3.892;2023-06-19T05:21:17;28.33;;;16.33;;
81137;SDS011;70623;50.886;3.892;2023-06-19T05:23:45;25.73;;;16.23;;
81137;SDS011;70623;50.886;3.892;2023-06-19T05:26:15;29.17;;;16.98;;
81137;SDS011;70623;50.886;3.892;2023-06-19T05:28:44;25.88;;;17.00;;
81137;SDS011;70623;50.886;3.892;2023-06-19T05:31:12;26.92;;;15.88;;
81137;SDS011;70623;50.886;3.892;2023-06-19T05:33:40;25.08;;;15.02;;
81137;SDS011;70623;50.886;3.892;2023-06-19T05:36:06;28.25;;;17.17;;
81137;SDS011;70623;50.886;3.892;2023-06-19T05:38:35;24.13;;;16.05;;
81137;SDS011;70623;50.886;3.892;2023-06-19T05:41:01;25.30;;;16.95;;
81137;SDS011;70623;50.886;3.892;2023-06-19T05:43:27;22.80;;;15.40;;
81137;SDS011;70623;50.886;3.892;2023-06-19T05:45:53;26.58;;;15.02;;
81137;SDS011;70623;50.886;3.892;2023-06-19T05:48:21;28.67;;;16.67;;
81137;SDS011;70623;50.886;3.892;2023-06-19T05:50:46;25.45;;;14.35;;
81137;SDS011;70623;50.886;3.892;2023-06-19T05:53:12;23.38;;;14.02;;
81137;SDS011;70623;50.886;3.892;2023-06-19T05:55:38;22.20;;;14.05;;
81137;SDS011;70623;50.886;3.892;2023-06-19T05:58:03;22.50;;;13.52;;
81137;SDS011;70623;50.886;3.892;2023-06-19T06:00:30;22.17;;;13.90;;
81137;SDS011;70623;50.886;3.892;2023-06-19T06:02:57;26.45;;;14.65;;
81137;SDS011;70623;50.886;3.892;2023-06-19T06:05:28;22.02;;;14.75;;
81137;SDS011;70623;50.886;3.892;2023-06-19T06:07:54;21.77;;;13.93;;
81137;SDS011;70623;50.886;3.892;2023-06-19T06:10:26;23.23;;;15.15;;
81137;SDS011;70623;50.886;3.892;2023-06-19T06:16:00;24.33;;;14.27;;
81137;SDS011;70623;50.886;3.892;2023-06-19T06:18:25;19.73;;;12.93;;
81137;SDS011;70623;50.886;3.892;2023-06-19T06:21:07;20.45;;;13.93;;
81137;SDS011;70623;50.886;3.892;2023-06-19T06:23:42;23.95;;;13.52;;
81137;SDS011;70623;50.886;3.892;2023-06-19T06:26:13;19.38;;;13.10;;
81137;SDS011;70623;50.886;3.892;2023-06-19T06:28:39;20.58;;;12.88;;
81137;SDS011;70623;50.886;3.892;2023-06-19T06:31:22;19.75;;;13.05;;
81137;SDS011;70623;50.886;3.892;2023-06-19T06:34:28;20.77;;;12.23;;
81137;SDS011;70623;50.886;3.892;2023-06-19T06:37:13;21.65;;;12.52;;
81137;SDS011;70623;50.886;3.892;2023-06-19T06:39:49;20.83;;;14.32;;
81137;SDS011;70623;50.886;3.892;2023-06-19T06:42:15;23.00;;;14.27;;
81137;SDS011;70623;50.886;3.892;2023-06-19T06:44:45;22.45;;;14.00;;
81137;SDS011;70623;50.886;3.892;2023-06-19T06:47:25;19.17;;;12.52;;
81137;SDS011;70623;50.886;3.892;2023-06-19T06:50:08;17.52;;;12.18;;
81137;SDS011;70623;50.886;3.892;2023-06-19T06:52:34;19.88;;;12.98;;
81137;SDS011;70623;50.886;3.892;2023-06-19T06:55:00;18.02;;;11.55;;
81137;SDS011;70623;50.886;3.892;2023-06-19T06:57:26;18.63;;;11.85;;
81137;SDS011;70623;50.886;3.892;2023-06-19T06:59:52;16.02;;;10.95;;
81137;SDS011;70623;50.886;3.892;2023-06-19T07:02:32;16.30;;;10.85;;
81137;SDS011;70623;50.886;3.892;2023-06-19T07:05:30;20.48;;;12.07;;
81137;SDS011;70623;50.886;3.892;2023-06-19T07:08:11;18.25;;;10.93;;
81137;SDS011;70623;50.886;3.892;2023-06-19T07:10:45;19.88;;;12.13;;
81137;SDS011;70623;50.886;3.892;2023-06-19T07:13:36;17.25;;;11.40;;
81137;SDS011;70623;50.886;3.892;2023-06-19T07:16:14;17.20;;;11.70;;
81137;SDS011;70623;50.886;3.892;2023-06-19T07:19:16;19.40;;;11.37;;
81137;SDS011;70623;50.886;3.892;2023-06-19T07:21:42;18.88;;;12.18;;
81137;SDS011;70623;50.886;3.892;2023-06-19T07:24:42;18.90;;;11.35;;
81137;SDS011;70623;50.886;3.892;2023-06-19T07:27:08;17.40;;;11.02;;
81137;SDS011;70623;50.886;3.892;2023-06-19T07:29:39;19.52;;;11.10;;
81137;SDS011;70623;50.886;3.892;2023-06-19T07:32:05;18.75;;;10.25;;
81137;SDS011;70623;50.886;3.892;2023-06-19T07:34:31;17.92;;;9.60;;
81137;SDS011;70623;50.886;3.892;2023-06-19T07:36:59;19.95;;;11.07;;
81137;SDS011;70623;50.886;3.892;2023-06-19T07:39:28;16.02;;;10.23;;
81137;SDS011;70623;50.886;3.892;2023-06-19T07:41:54;15.63;;;9.88;;
81137;SDS011;70623;50.886;3.892;2023-06-19T07:44:19;16.13;;;10.90;;
81137;SDS011;70623;50.886;3.892;2023-06-19T07:47:06;15.80;;;9.45;;
81137;SDS011;70623;50.886;3.892;2023-06-19T07:49:47;17.35;;;11.23;;
81137;SDS011;70623;50.886;3.892;2023-06-19T07:52:13;16.03;;;10.70;;
81137;SDS011;70623;50.886;3.892;2023-06-19T07:54:54;16.23;;;10.75;;
81137;SDS011;70623;50.886;3.892;2023-06-19T07:57:26;16.27;;;10.48;;
81137;SDS011;70623;50.886;3.892;2023-06-19T07:59:53;15.93;;;11.30;;
81137;SDS011;70623;50.886;3.892;2023-06-19T08:02:19;19.13;;;11.18;;
81137;SDS011;70623;50.886;3.892;2023-06-19T08:04:46;16.52;;;11.75;;
81137;SDS011;70623;50.886;3.892;2023-06-19T08:07:12;15.45;;;9.98;;
81137;SDS011;70623;50.886;3.892;2023-06-19T08:09:40;17.77;;;12.20;;
81137;SDS011;70623;50.886;3.892;2023-06-19T08:12:07;18.08;;;11.75;;
81137;SDS011;70623;50.886;3.892;2023-06-19T08:14:39;17.60;;;11.15;;
81137;SDS011;70623;50.886;3.892;2023-06-19T08:17:05;16.13;;;10.80;;
81137;SDS011;70623;50.886;3.892;2023-06-19T08:19:31;14.70;;;10.05;;
81137;SDS011;70623;50.886;3.892;2023-06-19T08:21:57;15.38;;;10.27;;
81137;SDS011;70623;50.886;3.892;2023-06-19T08:24:23;14.27;;;10.50;;
81137;SDS011;70623;50.886;3.892;2023-06-19T08:26:49;18.75;;;11.60;;
81137;SDS011;70623;50.886;3.892;2023-06-19T08:29:18;18.42;;;11.10;;
81137;SDS011;70623;50.886;3.892;2023-06-19T08:31:44;17.98;;;12.20;;
81137;SDS011;70623;50.886;3.892;2023-06-19T08:34:10;19.90;;;12.65;;
81137;SDS011;70623;50.886;3.892;2023-06-19T08:36:36;15.40;;;11.93;;
81137;SDS011;70623;50.886;3.892;2023-06-19T08:39:02;18.73;;;12.63;;
81137;SDS011;70623;50.886;3.892;2023-06-19T08:41:30;16.48;;;12.73;;
81137;SDS011;70623;50.886;3.892;2023-06-19T08:43:56;14.82;;;11.43;;
81137;SDS011;70623;50.886;3.892;2023-06-19T08:46:36;15.88;;;11.35;;
81137;SDS011;70623;50.886;3.892;2023-06-19T08:51:35;20.05;;;12.25;;
81137;SDS011;70623;50.886;3.892;2023-06-19T08:54:01;15.82;;;11.32;;
81137;SDS011;70623;50.886;3.892;2023-06-19T08:56:29;15.00;;;10.85;;
81137;SDS011;70623;50.886;3.892;2023-06-19T08:59:08;14.55;;;9.80;;
81137;SDS011;70623;50.886;3.892;2023-06-19T09:01:47;12.82;;;10.60;;
81137;SDS011;70623;50.886;3.892;2023-06-19T09:04:17;15.88;;;9.82;;
81137;SDS011;70623;50.886;3.892;2023-06-19T09:07:01;16.15;;;9.90;;
81137;SDS011;70623;50.886;3.892;2023-06-19T09:09:54;15.20;;;10.43;;
81137;SDS011;70623;50.886;3.892;2023-06-19T09:12:29;11.23;;;9.52;;
81137;SDS011;70623;50.886;3.892;2023-06-19T09:15:10;14.85;;;10.45;;
81137;SDS011;70623;50.886;3.892;2023-06-19T09:17:37;14.85;;;11.30;;
81137;SDS011;70623;50.886;3.892;2023-06-19T09:20:03;15.85;;;11.30;;
81137;SDS011;70623;50.886;3.892;2023-06-19T09:22:32;20.02;;;13.32;;
81137;SDS011;70623;50.886;3.892;2023-06-19T09:25:01;16.42;;;11.13;;
81137;SDS011;70623;50.886;3.892;2023-06-19T09:27:32;18.55;;;11.23;;
81137;SDS011;70623;50.886;3.892;2023-06-19T09:29:58;12.80;;;10.10;;
81137;SDS011;70623;50.886;3.892;2023-06-19T09:32:26;14.55;;;10.52;;
81137;SDS011;70623;50.886;3.892;2023-06-19T09:34:54;15.13;;;10.85;;
81137;SDS011;70623;50.886;3.892;2023-06-19T09:37:25;16.52;;;10.23;;
81137;SDS011;70623;50.886;3.892;2023-06-19T09:42:40;17.15;;;11.57;;
81137;SDS011;70623;50.886;3.892;2023-06-19T09:45:08;16.13;;;11.32;;
81137;SDS011;70623;50.886;3.892;2023-06-19T09:47:44;19.73;;;11.32;;
81137;SDS011;70623;50.886;3.892;2023-06-19T09:50:12;16.48;;;9.38;;
81137;SDS011;70623;50.886;3.892;2023-06-19T09:52:42;13.05;;;9.25;;
81137;SDS011;70623;50.886;3.892;2023-06-19T09:55:10;15.93;;;11.20;;
81137;SDS011;70623;50.886;3.892;2023-06-19T09:57:40;16.92;;;11.73;;
81137;SDS011;70623;50.886;3.892;2023-06-19T10:00:09;17.98;;;11.38;;
81137;SDS011;70623;50.886;3.892;2023-06-19T10:02:38;15.30;;;10.73;;
81137;SDS011;70623;50.886;3.892;2023-06-19T10:05:05;14.68;;;10.23;;
81137;SDS011;70623;50.886;3.892;2023-06-19T10:07:34;14.88;;;10.40;;
81137;SDS011;70623;50.886;3.892;2023-06-19T10:12:40;13.05;;;8.95;;
81137;SDS011;70623;50.886;3.892;2023-06-19T10:17:48;13.75;;;9.98;;
81137;SDS011;70623;50.886;3.892;2023-06-19T10:20:21;13.00;;;10.15;;
81137;SDS011;70623;50.886;3.892;2023-06-19T10:23:35;16.75;;;10.38;;
81137;SDS011;70623;50.886;3.892;2023-06-19T10:25:43;16.83;;;12.50;;
81137;SDS011;70623;50.886;3.892;2023-06-19T10:28:45;15.85;;;12.85;;
81137;SDS011;70623;50.886;3.892;2023-06-19T10:31:03;20.30;;;13.90;;
81137;SDS011;70623;50.886;3.892;2023-06-19T10:33:36;16.60;;;12.70;;
81137;SDS011;70623;50.886;3.892;2023-06-19T10:38:41;14.70;;;11.82;;
81137;SDS011;70623;50.886;3.892;2023-06-19T10:41:15;18.42;;;12.32;;
81137;SDS011;70623;50.886;3.892;2023-06-19T10:43:42;16.02;;;11.88;;
81137;SDS011;70623;50.886;3.892;2023-06-19T10:46:18;18.10;;;11.63;;
81137;SDS011;70623;50.886;3.892;2023-06-19T10:48:48;19.27;;;13.32;;
81137;SDS011;70623;50.886;3.892;2023-06-19T10:51:18;16.30;;;10.35;;
81137;SDS011;70623;50.886;3.892;2023-06-19T10:53:47;15.10;;;11.65;;
81137;SDS011;70623;50.886;3.892;2023-06-19T10:56:12;16.35;;;9.52;;
81137;SDS011;70623;50.886;3.892;2023-06-19T10:58:38;13.65;;;10.63;;
81137;SDS011;70623;50.886;3.892;2023-06-19T11:01:06;14.43;;;9.90;;
81137;SDS011;70623;50.886;3.892;2023-06-19T11:03:34;13.50;;;9.13;;
81137;SDS011;70623;50.886;3.892;2023-06-19T11:06:03;15.15;;;9.13;;
81137;SDS011;70623;50.886;3.892;2023-06-19T11:08:28;12.18;;;9.00;;
81137;SDS011;70623;50.886;3.892;2023-06-19T11:10:54;10.95;;;8.60;;
81137;SDS011;70623;50.886;3.892;2023-06-19T11:13:20;12.32;;;8.73;;
81137;SDS011;70623;50.886;3.892;2023-06-19T11:15:49;14.48;;;8.07;;
81137;SDS011;70623;50.886;3.892;2023-06-19T11:18:18;11.30;;;7.00;;
81137;SDS011;70623;50.886;3.892;2023-06-19T11:20:47;10.40;;;6.78;;
81137;SDS011;70623;50.886;3.892;2023-06-19T11:23:24;10.50;;;6.70;;
81137;SDS011;70623;50.886;3.892;2023-06-19T11:26:05;10.45;;;7.70;;
81137;SDS011;70623;50.886;3.892;2023-06-19T11:28:31;13.40;;;6.85;;
81137;SDS011;70623;50.886;3.892;2023-06-19T11:31:01;10.57;;;7.03;;
81137;SDS011;70623;50.886;3.892;2023-06-19T11:33:28;10.88;;;7.13;;
81137;SDS011;70623;50.886;3.892;2023-06-19T11:35:58;10.65;;;6.60;;
81137;SDS011;70623;50.886;3.892;2023-06-19T11:38:25;10.50;;;7.22;;
81137;SDS011;70623;50.886;3.892;2023-06-19T11:40:52;11.52;;;7.50;;
81137;SDS011;70623;50.886;3.892;2023-06-19T11:43:26;11.57;;;8.23;;
81137;SDS011;70623;50.886;3.892;2023-06-19T11:46:05;11.93;;;6.78;;
81137;SDS011;70623;50.886;3.892;2023-06-19T11:48:37;9.70;;;7.35;;
81137;SDS011;70623;50.886;3.892;2023-06-19T11:51:03;9.80;;;7.05;;
81137;SDS011;70623;50.886;3.892;2023-06-19T11:53:29;11.63;;;7.35;;
81137;SDS011;70623;50.886;3.892;2023-06-19T11:55:55;9.85;;;6.93;;
81137;SDS011;70623;50.886;3.892;2023-06-19T11:58:21;11.77;;;6.35;;
81137;SDS011;70623;50.886;3.892;2023-06-19T12:00:49;12.07;;;5.78;;
81137;SDS011;70623;50.886;3.892;2023-06-19T12:03:15;12.50;;;5.95;;
81137;SDS011;70623;50.886;3.892;2023-06-19T12:05:41;14.48;;;7.05;;
81137;SDS011;70623;50.886;3.892;2023-06-19T12:08:07;8.38;;;5.95;;
81137;SDS011;70623;50.886;3.892;2023-06-19T12:10:33;11.52;;;5.63;;
81137;SDS011;70623;50.886;3.892;2023-06-19T12:13:02;10.02;;;6.68;;
81137;SDS011;70623;50.886;3.892;2023-06-19T12:15:28;13.02;;;6.78;;
81137;SDS011;70623;50.886;3.892;2023-06-19T12:17:56;9.07;;;5.80;;
81137;SDS011;70623;50.886;3.892;2023-06-19T12:20:23;8.90;;;6.05;;
81137;SDS011;70623;50.886;3.892;2023-06-19T12:22:49;10.63;;;6.68;;
81137;SDS011;70623;50.886;3.892;2023-06-19T12:25:15;12.65;;;6.63;;
81137;SDS011;70623;50.886;3.892;2023-06-19T12:27:41;10.88;;;6.40;;
81137;SDS011;70623;50.886;3.892;2023-06-19T12:30:09;12.52;;;7.20;;
81137;SDS011;70623;50.886;3.892;2023-06-19T12:32:37;10.07;;;6.63;;
81137;SDS011;70623;50.886;3.892;2023-06-19T12:35:03;11.65;;;7.30;;
81137;SDS011;70623;50.886;3.892;2023-06-19T12:37:29;9.35;;;6.70;;
81137;SDS011;70623;50.886;3.892;2023-06-19T12:39:58;15.77;;;6.65;;
81137;SDS011;70623;50.886;3.892;2023-06-19T12:42:23;9.27;;;5.90;;
81137;SDS011;70623;50.886;3.892;2023-06-19T12:44:49;9.32;;;6.03;;
81137;SDS011;70623;50.886;3.892;2023-06-19T12:47:15;11.15;;;6.15;;
81137;SDS011;70623;50.886;3.892;2023-06-19T12:49:43;11.30;;;6.35;;
81137;SDS011;70623;50.886;3.892;2023-06-19T12:52:09;10.30;;;6.07;;
81137;SDS011;70623;50.886;3.892;2023-06-19T12:54:37;20.17;;;6.93;;
81137;SDS011;70623;50.886;3.892;2023-06-19T12:57:07;11.93;;;6.35;;
81137;SDS011;70623;50.886;3.892;2023-06-19T12:59:32;11.18;;;5.97;;
81137;SDS011;70623;50.886;3.892;2023-06-19T13:01:58;10.50;;;6.20;;
81137;SDS011;70623;50.886;3.892;2023-06-19T13:04:24;7.55;;;5.38;;
81137;SDS011;70623;50.886;3.892;2023-06-19T13:10:17;7.80;;;5.70;;
81137;SDS011;70623;50.886;3.892;2023-06-19T13:15:09;8.18;;;5.63;;
81137;SDS011;70623;50.886;3.892;2023-06-19T13:17:41;8.40;;;5.75;;
81137;SDS011;70623;50.886;3.892;2023-06-19T13:20:07;9.82;;;5.72;;
81137;SDS011;70623;50.886;3.892;2023-06-19T13:22:34;8.73;;;5.20;;
81137;SDS011;70623;50.886;3.892;2023-06-19T13:25:00;8.93;;;5.68;;
81137;SDS011;70623;50.886;3.892;2023-06-19T13:27:29;9.65;;;5.90;;
81137;SDS011;70623;50.886;3.892;2023-06-19T13:29:54;9.30;;;5.68;;
81137;SDS011;70623;50.886;3.892;2023-06-19T13:32:21;7.45;;;4.88;;
81137;SDS011;70623;50.886;3.892;2023-06-19T13:35:04;8.32;;;5.38;;
81137;SDS011;70623;50.886;3.892;2023-06-19T13:37:34;8.98;;;4.75;;
81137;SDS011;70623;50.886;3.892;2023-06-19T13:40:01;8.80;;;5.30;;
81137;SDS011;70623;50.886;3.892;2023-06-19T13:42:29;7.10;;;5.03;;
81137;SDS011;70623;50.886;3.892;2023-06-19T13:44:56;10.38;;;5.20;;
81137;SDS011;70623;50.886;3.892;2023-06-19T13:47:21;9.05;;;5.07;;
81137;SDS011;70623;50.886;3.892;2023-06-19T13:50:00;8.77;;;5.65;;
81137;SDS011;70623;50.886;3.892;2023-06-19T13:52:29;6.38;;;5.00;;
81137;SDS011;70623;50.886;3.892;2023-06-19T13:54:58;6.88;;;4.85;;
81137;SDS011;70623;50.886;3.892;2023-06-19T13:57:24;7.75;;;5.30;;
81137;SDS011;70623;50.886;3.892;2023-06-19T13:59:49;6.88;;;5.32;;
81137;SDS011;70623;50.886;3.892;2023-06-19T14:02:17;6.70;;;5.22;;
81137;SDS011;70623;50.886;3.892;2023-06-19T14:04:43;8.95;;;5.47;;
81137;SDS011;70623;50.886;3.892;2023-06-19T14:07:09;12.00;;;5.57;;
81137;SDS011;70623;50.886;3.892;2023-06-19T14:09:34;7.18;;;4.80;;
81137;SDS011;70623;50.886;3.892;2023-06-19T14:12:00;9.07;;;5.55;;
81137;SDS011;70623;50.886;3.892;2023-06-19T14:14:26;10.32;;;5.32;;
81137;SDS011;70623;50.886;3.892;2023-06-19T14:16:52;11.50;;;5.40;;
81137;SDS011;70623;50.886;3.892;2023-06-19T14:19:18;7.68;;;5.15;;
81137;SDS011;70623;50.886;3.892;2023-06-19T14:21:47;8.88;;;4.80;;
81137;SDS011;70623;50.886;3.892;2023-06-19T14:24:12;7.55;;;4.70;;
81137;SDS011;70623;50.886;3.892;2023-06-19T14:26:38;7.97;;;4.85;;
81137;SDS011;70623;50.886;3.892;2023-06-19T14:29:04;8.55;;;5.43;;
81137;SDS011;70623;50.886;3.892;2023-06-19T14:31:29;7.65;;;4.78;;
81137;SDS011;70623;50.886;3.892;2023-06-19T14:33:57;7.85;;;5.35;;
81137;SDS011;70623;50.886;3.892;2023-06-19T14:36:25;10.55;;;4.80;;
81137;SDS011;70623;50.886;3.892;2023-06-19T14:38:51;8.13;;;4.82;;
81137;SDS011;70623;50.886;3.892;2023-06-19T14:41:20;7.53;;;5.20;;
81137;SDS011;70623;50.886;3.892;2023-06-19T14:43:46;10.05;;;4.90;;
81137;SDS011;70623;50.886;3.892;2023-06-19T14:46:12;9.68;;;5.30;;
81137;SDS011;70623;50.886;3.892;2023-06-19T14:48:37;8.68;;;5.25;;
81137;SDS011;70623;50.886;3.892;2023-06-19T14:51:03;9.75;;;5.50;;
81137;SDS011;70623;50.886;3.892;2023-06-19T14:53:29;7.85;;;5.22;;
81137;SDS011;70623;50.886;3.892;2023-06-19T14:55:58;10.52;;;5.57;;
81137;SDS011;70623;50.886;3.892;2023-06-19T15:00:53;7.55;;;4.82;;
81137;SDS011;70623;50.886;3.892;2023-06-19T15:03:19;8.02;;;5.05;;
81137;SDS011;70623;50.886;3.892;2023-06-19T15:05:45;6.57;;;4.40;;
81137;SDS011;70623;50.886;3.892;2023-06-19T15:08:10;8.23;;;4.97;;
81137;SDS011;70623;50.886;3.892;2023-06-19T15:10:39;7.70;;;4.70;;